createdAt,value
2018-12-12T00:02:24.484Z,84.07
2018-12-12T00:04:51.978Z,83.54
2018-12-12T00:07:19.417Z,83.18
2018-12-12T00:09:46.838Z,82.41
2018-12-12T00:12:14.282Z,82.13
2018-12-12T00:14:41.953Z,81.80
2018-12-12T00:17:09.366Z,81.41
2018-12-12T00:19:36.858Z,80.68
2018-12-12T00:22:04.280Z,81.28
2018-12-12T00:24:31.726Z,82.42
2018-12-12T00:26:59.181Z,83.26
2018-12-12T00:29:26.621Z,84.28
2018-12-12T00:31:54.067Z,84.23
2018-12-12T00:34:21.499Z,84.50
2018-12-12T00:36:48.952Z,84.70
2018-12-12T00:39:16.363Z,84.40
2018-12-12T00:41:43.869Z,84.41
2018-12-12T00:44:12.093Z,84.06
2018-12-12T00:46:39.622Z,84.54
2018-12-12T00:49:07.073Z,85.00
2018-12-12T00:51:34.530Z,84.53
2018-12-12T00:54:01.971Z,84.67
2018-12-12T00:56:29.433Z,84.43
2018-12-12T00:58:56.860Z,84.10
2018-12-12T01:01:24.301Z,84.40
2018-12-12T01:03:51.756Z,83.83
2018-12-12T01:06:20.047Z,83.06
2018-12-12T01:08:47.648Z,82.86
2018-12-12T01:11:20.548Z,82.35
2018-12-12T01:13:47.995Z,81.73
2018-12-12T01:16:15.426Z,81.91
2018-12-12T01:18:42.867Z,83.86
2018-12-12T01:21:10.313Z,83.37
2018-12-12T01:23:37.746Z,83.10
2018-12-12T01:26:05.167Z,83.43
2018-12-12T01:28:32.598Z,83.62
2018-12-12T01:31:00.048Z,82.98
2018-12-12T01:33:27.479Z,82.20
2018-12-12T01:35:54.938Z,81.33
2018-12-12T01:38:22.367Z,80.87
2018-12-12T01:40:49.849Z,80.65
2018-12-12T01:43:17.291Z,80.74
2018-12-12T01:45:44.746Z,80.55
2018-12-12T01:48:12.206Z,80.31
2018-12-12T01:50:39.630Z,79.82
2018-12-12T01:53:07.067Z,79.56
2018-12-12T01:55:34.542Z,79.44
2018-12-12T01:58:02.010Z,79.74
2018-12-12T02:00:29.461Z,79.57
2018-12-12T02:02:58.027Z,80.37
2018-12-12T02:05:25.676Z,81.73
2018-12-12T02:07:53.130Z,83.09
2018-12-12T02:10:20.582Z,82.46
2018-12-12T02:12:59.680Z,81.72
2018-12-12T02:15:27.118Z,81.41
2018-12-12T02:17:54.530Z,81.72
2018-12-12T02:20:22.029Z,81.75
2018-12-12T02:22:49.469Z,81.29
2018-12-12T02:25:16.917Z,80.77
2018-12-12T02:27:44.339Z,80.56
2018-12-12T02:30:11.813Z,80.13
2018-12-12T02:32:39.267Z,79.72
2018-12-12T02:35:06.697Z,79.90
2018-12-12T02:37:34.141Z,80.06
2018-12-12T02:40:01.556Z,80.37
2018-12-12T02:42:29.013Z,80.34
2018-12-12T02:44:56.469Z,80.28
2018-12-12T02:47:23.918Z,80.10
2018-12-12T02:49:51.354Z,79.88
2018-12-12T02:52:19.807Z,79.87
2018-12-12T02:54:47.356Z,79.83
2018-12-12T02:57:14.771Z,79.78
2018-12-12T02:59:42.203Z,79.25
2018-12-12T03:02:09.623Z,79.17
2018-12-12T03:04:37.064Z,79.48
2018-12-12T03:07:04.493Z,79.11
2018-12-12T03:09:31.923Z,78.77
2018-12-12T03:11:59.348Z,78.65
2018-12-12T03:14:26.783Z,79.03
2018-12-12T03:16:54.246Z,78.75
2018-12-12T03:19:21.679Z,79.70
2018-12-12T03:21:49.114Z,79.29
2018-12-12T03:24:16.546Z,79.27
2018-12-12T03:26:43.978Z,78.99
2018-12-12T03:29:11.394Z,78.90
2018-12-12T03:31:38.840Z,78.44
2018-12-12T03:34:06.273Z,78.42
2018-12-12T03:36:33.722Z,79.40
2018-12-12T03:39:01.158Z,80.06
2018-12-12T03:41:28.603Z,82.01
2018-12-12T03:43:56.019Z,83.37
2018-12-12T03:46:23.472Z,82.72
2018-12-12T03:48:50.925Z,82.56
2018-12-12T03:51:18.375Z,82.58
2018-12-12T03:53:49.128Z,82.68
2018-12-12T03:56:16.624Z,83.06
2018-12-12T03:58:44.085Z,82.58
2018-12-12T04:01:11.521Z,82.42
2018-12-12T04:03:38.953Z,82.26
2018-12-12T04:06:06.382Z,81.89
2018-12-12T04:08:33.946Z,83.26
2018-12-12T04:11:01.377Z,82.18
2018-12-12T04:13:28.817Z,81.71
2018-12-12T04:15:57.620Z,81.09
2018-12-12T04:18:25.052Z,80.54
2018-12-12T04:20:52.504Z,80.11
2018-12-12T04:23:19.934Z,80.03
2018-12-12T04:25:47.388Z,79.95
2018-12-12T04:28:14.814Z,79.48
2018-12-12T04:30:42.314Z,79.06
2018-12-12T04:33:09.731Z,78.85
2018-12-12T04:35:37.166Z,79.06
2018-12-12T04:38:04.665Z,79.90
2018-12-12T04:40:32.108Z,80.15
2018-12-12T04:42:59.533Z,80.54
2018-12-12T04:45:27.012Z,80.20
2018-12-12T04:47:54.457Z,80.04
2018-12-12T04:50:21.889Z,80.08
2018-12-12T04:52:49.331Z,79.68
2018-12-12T04:55:16.782Z,79.65
2018-12-12T04:57:44.868Z,79.40
2018-12-12T05:00:11.708Z,79.22
2018-12-12T05:02:39.170Z,79.08
2018-12-12T05:05:06.589Z,78.99
2018-12-12T05:07:34.025Z,78.79
2018-12-12T05:10:01.485Z,78.84
2018-12-12T05:12:28.910Z,78.77
2018-12-12T05:14:56.369Z,78.71
2018-12-12T05:17:23.825Z,79.09
2018-12-12T05:19:51.243Z,80.28
2018-12-12T05:22:18.688Z,80.62
2018-12-12T05:24:46.141Z,81.52
2018-12-12T05:27:13.610Z,82.04
2018-12-12T05:29:41.038Z,81.73
2018-12-12T05:32:08.483Z,81.72
2018-12-12T05:34:35.900Z,81.05
2018-12-12T05:37:03.330Z,80.67
2018-12-12T05:39:30.785Z,80.37
2018-12-12T05:41:58.210Z,80.13
2018-12-12T05:44:25.646Z,79.85
2018-12-12T05:46:53.103Z,79.87
2018-12-12T05:49:20.543Z,79.85
2018-12-12T05:51:47.964Z,79.75
2018-12-12T05:54:15.407Z,79.76
2018-12-12T05:56:42.822Z,79.69
2018-12-12T05:59:10.326Z,80.01
2018-12-12T06:01:37.783Z,80.02
2018-12-12T06:04:05.207Z,79.80
2018-12-12T06:06:32.658Z,79.95
2018-12-12T06:09:00.125Z,79.87
2018-12-12T06:11:27.599Z,80.01
2018-12-12T06:13:55.030Z,79.87
2018-12-12T06:16:22.469Z,79.95
2018-12-12T06:18:49.947Z,79.88
2018-12-12T06:21:17.401Z,79.83
2018-12-12T06:23:44.831Z,79.76
2018-12-12T06:26:12.289Z,79.51
2018-12-12T06:28:39.719Z,79.49
2018-12-12T06:31:07.149Z,79.50
2018-12-12T06:33:34.582Z,79.47
2018-12-12T06:36:02.003Z,79.31
2018-12-12T06:38:29.449Z,79.43
2018-12-12T06:40:56.975Z,79.30
2018-12-12T06:43:24.410Z,79.01
2018-12-12T06:45:51.823Z,79.03
2018-12-12T06:48:19.282Z,78.86
2018-12-12T06:50:46.699Z,78.91
2018-12-12T06:53:14.132Z,78.64
2018-12-12T06:55:41.547Z,78.65
2018-12-12T06:58:08.982Z,78.71
2018-12-12T07:00:36.429Z,78.94
2018-12-12T07:03:03.923Z,79.03
2018-12-12T07:05:31.352Z,78.91
2018-12-12T07:07:58.823Z,78.90
2018-12-12T07:10:26.382Z,78.89
2018-12-12T07:12:53.822Z,79.06
2018-12-12T07:15:21.278Z,78.97
2018-12-12T07:17:48.725Z,79.00
2018-12-12T07:20:16.170Z,79.09
2018-12-12T07:22:43.642Z,79.19
2018-12-12T07:25:11.069Z,79.01
2018-12-12T07:27:38.541Z,78.97
2018-12-12T07:30:05.961Z,78.90
2018-12-12T07:32:34.390Z,79.27
2018-12-12T07:35:01.953Z,79.48
2018-12-12T07:37:29.396Z,79.49
2018-12-12T07:39:56.833Z,79.45
2018-12-12T07:42:24.280Z,79.50
2018-12-12T07:44:51.703Z,79.53
2018-12-12T07:47:19.147Z,79.55
2018-12-12T07:49:46.588Z,79.64
2018-12-12T07:52:14.041Z,79.46
2018-12-12T07:54:42.470Z,79.32
2018-12-12T07:57:09.901Z,79.28
2018-12-12T07:59:37.361Z,79.33
2018-12-12T08:02:04.777Z,79.33
2018-12-12T08:04:32.208Z,79.47
2018-12-12T08:06:59.621Z,79.34
2018-12-12T08:09:27.059Z,79.13
2018-12-12T08:11:54.517Z,79.13
2018-12-12T08:14:21.945Z,79.21
2018-12-12T08:16:49.390Z,79.30
2018-12-12T08:19:16.826Z,79.56
2018-12-12T08:21:44.254Z,79.39
2018-12-12T08:24:11.715Z,79.28
2018-12-12T08:26:39.192Z,79.69
2018-12-12T08:29:06.638Z,79.82
2018-12-12T08:31:34.121Z,79.65
2018-12-12T08:34:01.556Z,79.67
2018-12-12T08:36:29.015Z,79.77
2018-12-12T08:38:56.505Z,79.82
2018-12-12T08:41:23.922Z,79.76
2018-12-12T08:43:51.361Z,79.64
2018-12-12T08:46:18.854Z,79.81
2018-12-12T08:48:46.312Z,79.70
2018-12-12T08:51:13.882Z,79.60
2018-12-12T08:53:41.314Z,79.76
2018-12-12T08:56:08.788Z,79.66
2018-12-12T08:58:36.229Z,79.65
2018-12-12T09:01:03.681Z,79.62
2018-12-12T09:03:31.932Z,79.86
2018-12-12T09:05:59.353Z,79.63
2018-12-12T09:08:26.809Z,79.45
2018-12-12T09:10:54.253Z,79.53
2018-12-12T09:13:21.706Z,79.77
2018-12-12T09:15:49.218Z,79.66
2018-12-12T09:18:16.699Z,79.57
2018-12-12T09:20:44.119Z,79.79
2018-12-12T09:23:11.559Z,79.57
2018-12-12T09:25:39.715Z,79.61
2018-12-12T09:28:07.167Z,79.64
2018-12-12T09:30:34.578Z,79.99
2018-12-12T09:33:02.017Z,80.20
2018-12-12T09:35:29.463Z,80.08
2018-12-12T09:37:56.916Z,80.00
2018-12-12T09:40:24.451Z,79.98
2018-12-12T09:42:51.879Z,79.98
2018-12-12T09:45:21.851Z,79.90
2018-12-12T09:47:46.837Z,79.59
2018-12-12T09:50:14.286Z,79.61
2018-12-12T09:52:41.717Z,79.83
2018-12-12T09:55:09.220Z,79.61
2018-12-12T09:57:37.069Z,79.73
2018-12-12T10:00:04.513Z,79.59
2018-12-12T10:02:31.957Z,79.67
2018-12-12T10:04:59.384Z,79.55
2018-12-12T10:07:26.823Z,79.18
2018-12-12T10:09:54.257Z,79.26
2018-12-12T10:12:21.701Z,79.27
2018-12-12T10:14:49.143Z,79.53
2018-12-12T10:17:16.637Z,79.55
2018-12-12T10:19:44.021Z,79.48
2018-12-12T10:22:11.480Z,79.68
2018-12-12T10:24:38.908Z,79.44
2018-12-12T10:27:06.340Z,79.34
2018-12-12T10:29:33.773Z,79.01
2018-12-12T10:32:01.217Z,78.71
2018-12-12T10:34:29.557Z,78.83
2018-12-12T10:36:57.017Z,78.48
2018-12-12T10:39:24.469Z,78.48
2018-12-12T10:41:51.939Z,78.60
2018-12-12T10:44:19.372Z,78.51
2018-12-12T10:46:46.819Z,78.49
2018-12-12T10:49:14.269Z,78.42
2018-12-12T10:51:41.702Z,78.20
2018-12-12T10:54:09.143Z,78.05
2018-12-12T10:56:36.598Z,78.08
2018-12-12T10:59:04.068Z,78.20
2018-12-12T11:01:46.426Z,78.25
2018-12-12T11:04:13.859Z,78.21
2018-12-12T11:06:41.322Z,78.35
2018-12-12T11:09:08.834Z,78.37
2018-12-12T11:11:36.290Z,77.70
2018-12-12T11:14:03.705Z,77.91
2018-12-12T11:16:31.220Z,77.93
2018-12-12T11:18:58.655Z,77.70
2018-12-12T11:21:26.078Z,77.64
2018-12-12T11:23:53.529Z,77.54
2018-12-12T11:26:20.945Z,77.01
2018-12-12T11:28:50.282Z,77.42
2018-12-12T11:31:17.723Z,77.17
2018-12-12T11:33:50.468Z,77.47
2018-12-12T11:36:12.665Z,77.66
2018-12-12T11:38:40.096Z,77.40
2018-12-12T11:41:08.424Z,77.38
2018-12-12T11:43:35.948Z,77.46
2018-12-12T11:46:03.407Z,77.69
2018-12-12T11:48:30.857Z,77.88
2018-12-12T11:50:58.348Z,77.32
2018-12-12T11:53:25.800Z,77.67
2018-12-12T11:55:53.262Z,77.91
2018-12-12T11:58:20.703Z,77.88
2018-12-12T12:00:48.148Z,77.58
2018-12-12T12:03:15.569Z,76.91
2018-12-12T12:05:43.017Z,76.96
2018-12-12T12:08:10.431Z,76.94
2018-12-12T12:10:37.868Z,76.86
2018-12-12T12:13:05.294Z,76.62
2018-12-12T12:15:32.745Z,75.96
2018-12-12T12:18:00.180Z,76.20
2018-12-12T12:20:27.629Z,75.95
2018-12-12T12:22:55.080Z,75.69
2018-12-12T12:25:22.534Z,76.04
2018-12-12T12:27:49.987Z,76.22
2018-12-12T12:30:17.401Z,75.86
2018-12-12T12:32:44.843Z,76.07
2018-12-12T12:35:13.214Z,76.23
2018-12-12T12:37:40.701Z,76.16
2018-12-12T12:40:08.284Z,76.29
2018-12-12T12:42:35.702Z,76.47
2018-12-12T12:45:03.145Z,75.29
2018-12-12T12:47:30.645Z,75.24
2018-12-12T12:49:58.064Z,75.52
2018-12-12T12:52:25.502Z,75.78
2018-12-12T12:54:52.958Z,75.67
2018-12-12T12:57:20.373Z,75.69
2018-12-12T12:59:47.833Z,75.05
2018-12-12T13:02:15.257Z,74.85
2018-12-12T13:04:42.709Z,74.99
2018-12-12T13:07:10.139Z,74.89
2018-12-12T13:09:38.943Z,75.04
2018-12-12T13:12:06.122Z,74.61
2018-12-12T13:14:33.522Z,74.49
2018-12-12T13:17:00.931Z,74.62
2018-12-12T13:19:28.412Z,74.74
2018-12-12T13:21:55.865Z,74.65
2018-12-12T13:24:23.262Z,74.36
2018-12-12T13:26:53.673Z,74.31
2018-12-12T13:29:18.134Z,74.41
2018-12-12T13:31:45.612Z,74.38
2018-12-12T13:34:16.227Z,74.65
2018-12-12T13:36:40.505Z,73.68
2018-12-12T13:39:07.995Z,74.07
2018-12-12T13:41:35.437Z,73.84
2018-12-12T13:44:02.866Z,74.07
2018-12-12T13:46:30.327Z,73.90
2018-12-12T13:48:57.747Z,73.49
2018-12-12T13:51:25.162Z,73.72
2018-12-12T13:53:52.617Z,73.60
2018-12-12T13:56:20.051Z,73.80
2018-12-12T13:58:47.479Z,73.65
2018-12-12T14:01:14.933Z,74.08
2018-12-12T14:03:42.355Z,73.95
2018-12-12T14:06:09.783Z,73.78
2018-12-12T14:08:37.213Z,73.93
2018-12-12T14:11:04.658Z,73.85
2018-12-12T14:13:32.100Z,74.01
2018-12-12T14:15:59.515Z,74.38
2018-12-12T14:18:26.959Z,74.23
2018-12-12T14:20:54.398Z,74.22
2018-12-12T14:23:21.827Z,74.21
2018-12-12T14:25:49.269Z,74.00
2018-12-12T14:28:18.256Z,73.96
2018-12-12T14:30:45.741Z,74.02
2018-12-12T14:33:13.186Z,73.87
2018-12-12T14:35:40.613Z,74.06
2018-12-12T14:38:08.403Z,73.87
2018-12-12T14:40:35.822Z,73.98
2018-12-12T14:43:03.287Z,74.06
2018-12-12T14:45:30.711Z,73.65
2018-12-12T14:47:58.147Z,73.66
2018-12-12T14:50:26.444Z,73.68
2018-12-12T14:52:53.973Z,73.95
2018-12-12T14:55:21.391Z,73.73
2018-12-12T14:57:48.839Z,74.00
2018-12-12T15:00:16.263Z,73.69
2018-12-12T15:02:43.702Z,73.72
2018-12-12T15:05:11.205Z,73.87
2018-12-12T15:07:38.667Z,74.03
2018-12-12T15:10:06.122Z,74.02
2018-12-12T15:12:33.589Z,74.29
2018-12-12T15:15:01.053Z,74.23
2018-12-12T15:17:28.487Z,74.58
2018-12-12T15:19:55.933Z,74.57
2018-12-12T15:22:23.368Z,74.85
2018-12-12T15:24:50.849Z,74.98
2018-12-12T15:27:18.285Z,75.01
2018-12-12T15:29:45.699Z,74.91
2018-12-12T15:32:13.150Z,75.31
2018-12-12T15:34:42.425Z,75.29
2018-12-12T15:37:08.838Z,75.23
2018-12-12T15:39:36.337Z,75.38
2018-12-12T15:42:03.799Z,75.71
2018-12-12T15:44:31.239Z,75.54
2018-12-12T15:46:58.671Z,75.84
2018-12-12T15:49:26.106Z,75.76
2018-12-12T15:51:53.565Z,75.50
2018-12-12T15:54:21.024Z,75.66
2018-12-12T15:56:48.459Z,75.53
2018-12-12T15:59:15.909Z,75.61
2018-12-12T16:01:43.343Z,75.40
2018-12-12T16:04:10.791Z,75.44
2018-12-12T16:06:38.212Z,75.48
2018-12-12T16:09:05.748Z,75.71
2018-12-12T16:11:33.149Z,75.57
2018-12-12T16:14:00.606Z,75.56
2018-12-12T16:16:28.030Z,75.65
2018-12-12T16:18:55.473Z,75.43
2018-12-12T16:21:22.911Z,75.11
2018-12-12T16:23:51.568Z,74.97
2018-12-12T16:26:19.098Z,75.18
2018-12-12T16:28:46.508Z,75.38
2018-12-12T16:31:13.952Z,75.28
2018-12-12T16:33:41.385Z,75.42
2018-12-12T16:36:08.836Z,75.42
2018-12-12T16:38:36.257Z,75.54
2018-12-12T16:41:03.751Z,75.37
2018-12-12T16:43:31.200Z,75.46
2018-12-12T16:45:59.094Z,75.34
2018-12-12T16:48:26.565Z,75.46
2018-12-12T16:50:54.005Z,75.51
2018-12-12T16:53:21.474Z,75.42
2018-12-12T16:55:48.911Z,75.48
2018-12-12T16:58:16.393Z,75.20
2018-12-12T17:00:43.853Z,75.14
2018-12-12T17:03:11.277Z,74.98
2018-12-12T17:05:38.726Z,74.76
2018-12-12T17:08:06.158Z,74.52
2018-12-12T17:10:33.618Z,74.18
2018-12-12T17:13:01.054Z,73.73
2018-12-12T17:15:28.497Z,73.61
2018-12-12T17:17:55.923Z,73.77
2018-12-12T17:20:23.396Z,73.80
2018-12-12T17:22:50.835Z,73.90
2018-12-12T17:25:18.373Z,73.81
2018-12-12T17:27:45.795Z,73.94
2018-12-12T17:30:13.274Z,73.77
2018-12-12T17:32:40.709Z,73.85
2018-12-12T17:35:08.992Z,74.17
2018-12-12T17:37:35.645Z,73.92
2018-12-12T17:40:03.126Z,73.86
2018-12-12T17:42:30.553Z,73.81
2018-12-12T17:44:58.065Z,73.76
2018-12-12T17:47:25.507Z,73.85
2018-12-12T17:49:52.919Z,73.88
2018-12-12T17:52:20.354Z,73.60
2018-12-12T17:54:47.780Z,73.26
2018-12-12T17:57:15.210Z,73.67
2018-12-12T17:59:42.622Z,73.45
2018-12-12T18:02:10.068Z,73.45
2018-12-12T18:04:37.483Z,73.35
2018-12-12T18:07:04.955Z,73.49
2018-12-12T18:09:32.403Z,73.57
2018-12-12T18:11:59.843Z,73.32
2018-12-12T18:14:27.307Z,73.36
2018-12-12T18:16:54.743Z,73.53
2018-12-12T18:19:22.172Z,73.67
2018-12-12T18:21:49.638Z,73.60
2018-12-12T18:24:17.060Z,74.03
2018-12-12T18:26:44.487Z,74.00
2018-12-12T18:29:11.951Z,74.31
2018-12-12T18:31:39.366Z,74.53
2018-12-12T18:34:06.795Z,74.67
2018-12-12T18:36:34.262Z,74.90
2018-12-12T18:39:01.701Z,74.79
2018-12-12T18:41:29.155Z,75.03
2018-12-12T18:43:56.609Z,75.33
2018-12-12T18:46:24.269Z,75.51
2018-12-12T18:48:51.709Z,75.54
2018-12-12T18:51:19.124Z,75.55
2018-12-12T18:53:46.555Z,75.50
2018-12-12T18:56:13.985Z,75.48
2018-12-12T18:58:41.438Z,75.34
2018-12-12T19:01:08.869Z,75.29
2018-12-12T19:03:36.333Z,75.32
2018-12-12T19:06:03.774Z,75.34
2018-12-12T19:08:31.205Z,75.25
2018-12-12T19:10:58.636Z,75.28
2018-12-12T19:13:26.092Z,75.35
2018-12-12T19:15:53.529Z,75.22
2018-12-12T19:18:20.957Z,75.25
2018-12-12T19:20:48.404Z,75.14
2018-12-12T19:23:15.841Z,75.30
2018-12-12T19:25:43.371Z,75.46
2018-12-12T19:28:10.746Z,75.84
2018-12-12T19:30:38.197Z,75.85
2018-12-12T19:33:05.626Z,75.73
2018-12-12T19:35:34.865Z,75.54
2018-12-12T19:38:00.510Z,75.70
2018-12-12T19:40:27.962Z,75.64
2018-12-12T19:42:55.375Z,75.49
2018-12-12T19:45:24.203Z,75.51
2018-12-12T19:47:51.809Z,75.52
2018-12-12T19:50:19.249Z,75.61
2018-12-12T19:52:46.706Z,75.58
2018-12-12T19:55:14.525Z,75.35
2018-12-12T19:57:42.307Z,75.37
2018-12-12T20:00:09.949Z,75.72
2018-12-12T20:02:37.463Z,75.77
2018-12-12T20:05:04.900Z,75.88
2018-12-12T20:07:32.389Z,75.89
2018-12-12T20:09:59.802Z,75.99
2018-12-12T20:12:27.289Z,75.84
2018-12-12T20:14:54.719Z,76.03
2018-12-12T20:17:22.146Z,75.90
2018-12-12T20:19:49.595Z,76.30
2018-12-12T20:22:17.429Z,76.11
2018-12-12T20:24:45.008Z,75.96
2018-12-12T20:27:12.425Z,75.79
2018-12-12T20:29:39.881Z,75.87
2018-12-12T20:32:07.317Z,76.22
2018-12-12T20:34:34.755Z,76.03
2018-12-12T20:37:02.208Z,76.38
2018-12-12T20:39:29.655Z,76.69
2018-12-12T20:41:57.092Z,77.11
2018-12-12T20:44:25.449Z,76.83
2018-12-12T20:46:52.964Z,76.90
2018-12-12T20:49:20.383Z,76.98
2018-12-12T20:51:47.836Z,77.31
2018-12-12T20:54:15.274Z,77.28
2018-12-12T20:56:42.710Z,77.73
2018-12-12T20:59:10.145Z,77.44
2018-12-12T21:01:37.601Z,77.46
2018-12-12T21:04:05.043Z,77.64
2018-12-12T21:06:33.453Z,77.44
2018-12-12T21:09:00.980Z,77.46
2018-12-12T21:11:28.406Z,77.63
2018-12-12T21:13:55.870Z,77.37
2018-12-12T21:16:23.303Z,77.42
2018-12-12T21:18:50.749Z,77.60
2018-12-12T21:21:18.175Z,77.67
2018-12-12T21:23:45.620Z,77.39
2018-12-12T21:26:13.045Z,77.33
2018-12-12T21:28:40.483Z,76.89
2018-12-12T21:31:07.907Z,76.94
2018-12-12T21:33:35.360Z,76.75
2018-12-12T21:36:02.793Z,76.96
2018-12-12T21:38:30.251Z,77.00
2018-12-12T21:40:57.735Z,76.72
2018-12-12T21:43:25.240Z,76.72
2018-12-12T21:45:52.694Z,76.79
2018-12-12T21:48:20.172Z,76.77
2018-12-12T21:50:48.068Z,76.47
2018-12-12T21:53:15.545Z,76.30
2018-12-12T21:55:42.989Z,76.30
2018-12-12T21:58:10.442Z,76.43
2018-12-12T22:00:37.899Z,76.58
2018-12-12T22:03:05.312Z,76.75
2018-12-12T22:05:32.754Z,76.44
2018-12-12T22:08:00.231Z,76.55
2018-12-12T22:10:27.672Z,76.34
2018-12-12T22:12:56.040Z,76.45
2018-12-12T22:15:23.555Z,76.28
2018-12-12T22:17:50.988Z,76.38
2018-12-12T22:20:18.407Z,76.44
2018-12-12T22:22:45.861Z,76.66
2018-12-12T22:25:13.380Z,76.75
2018-12-12T22:27:40.831Z,76.48
2018-12-12T22:30:08.543Z,76.74
2018-12-12T22:32:36.057Z,76.69
2018-12-12T22:35:03.532Z,76.95
2018-12-12T22:37:30.985Z,77.10
2018-12-12T22:39:58.462Z,77.13
2018-12-12T22:42:25.915Z,77.14
2018-12-12T22:44:53.353Z,77.07
2018-12-12T22:47:20.823Z,77.08
2018-12-12T22:49:48.269Z,76.85
2018-12-12T22:52:15.734Z,77.09
2018-12-12T22:54:43.164Z,77.11
2018-12-12T22:57:10.633Z,77.09
2018-12-12T22:59:38.057Z,77.12
2018-12-12T23:02:05.494Z,77.19
2018-12-12T23:04:32.954Z,77.07
2018-12-12T23:07:00.388Z,77.39
2018-12-12T23:09:28.671Z,77.21
2018-12-12T23:11:56.221Z,77.24
2018-12-12T23:14:23.685Z,77.38
2018-12-12T23:16:51.147Z,77.58
2018-12-12T23:19:18.585Z,77.50
2018-12-12T23:21:46.035Z,77.88
2018-12-12T23:24:13.498Z,77.74
2018-12-12T23:26:40.963Z,77.75
2018-12-12T23:29:08.492Z,78.13
2018-12-12T23:31:36.824Z,78.15
2018-12-12T23:34:04.343Z,78.32
2018-12-12T23:36:31.779Z,78.25
2018-12-12T23:38:59.235Z,78.39
2018-12-12T23:41:26.708Z,78.49
2018-12-12T23:43:54.143Z,78.56
2018-12-12T23:46:21.596Z,78.77
2018-12-12T23:48:49.041Z,78.69
2018-12-12T23:51:16.474Z,78.85
2018-12-12T23:53:43.893Z,78.69
2018-12-12T23:56:11.306Z,78.77
2018-12-12T23:58:38.755Z,78.60
